Time;durP1;ratioP1;P1;durP2;ratioP2;P2;SDS_P1;SDS_P2;PMS_P1;PMS_P2;Temp;Humidity;BMP_temperature;BMP_pressure;BME280_temperature;BME280_humidity;BME280_pressure;Samples;Min_cycle;Max_cycle;Signal;HPM_P1;HPM_P2
2022/01/26 00:05:48;;;;;;;29.10;11.03;;;;;;;-4.93;66.90;95470.47;5051594;28;20196;-61
2022/01/26 00:06:35;;;;;;;25.17;10.73;;;;;;;-5.19;67.56;95437.72;5037197;28;20565;-63
2022/01/26 00:09:03;;;;;;;24.83;10.13;;;;;;;-5.11;68.13;95436.00;5051484;28;20309;-64
2022/01/26 00:11:31;;;;;;;20.13;9.93;;;;;;;-5.34;70.63;95357.03;5051671;28;20189;-60
2022/01/26 00:13:58;;;;;;;25.23;10.50;;;;;;;-5.40;71.37;95337.28;5051859;28;20304;-59
2022/01/26 00:16:34;;;;;;;19.67;9.50;;;;;;;-5.07;68.75;95421.91;5051680;28;20231;-64
2022/01/26 00:19:13;;;;;;;17.03;8.87;;;;;;;-5.17;69.81;95387.34;5050469;28;20235;-58
2022/01/26 00:29:16;;;;;;;17.23;8.73;;;;;;;-5.05;66.98;95443.38;5051692;28;20275;-59
2022/01/26 00:39:58;;;;;;;14.10;7.70;;;;;;;-4.95;68.00;95420.09;5051181;28;20183;-61
2022/01/26 00:42:25;;;;;;;17.80;8.37;;;;;;;-4.85;67.92;95410.88;5049387;28;20205;-60
2022/01/26 00:44:51;;;;;;;22.83;8.27;;;;;;;-5.17;70.51;95342.75;5051407;28;20193;-60
2022/01/26 00:47:16;;;;;;;15.53;8.60;;;;;;;-4.96;68.30;95407.72;5033294;28;20651;-61
2022/01/26 00:49:42;;;;;;;21.57;9.37;;;;;;;-5.22;69.46;95381.63;5073726;23;20278;-61
2022/01/26 00:52:13;;;;;;;20.77;9.10;;;;;;;-5.24;70.03;95375.06;5053054;28;20181;-59
2022/01/26 00:54:39;;;;;;;19.37;9.30;;;;;;;-5.03;68.83;95411.97;5071615;28;20564;-60
2022/01/26 00:57:04;;;;;;;23.33;9.03;;;;;;;-5.40;70.14;95367.00;5069759;28;20223;-65
2022/01/26 00:59:30;;;;;;;21.13;8.57;;;;;;;-5.53;69.84;95367.97;5071677;28;20205;-65
2022/01/26 01:01:56;;;;;;;24.53;11.10;;;;;;;-5.85;72.01;95309.81;5069828;28;20214;-67
2022/01/26 01:04:22;;;;;;;26.70;12.23;;;;;;;-5.56;71.26;95337.50;5071567;28;20208;-61
2022/01/26 01:06:54;;;;;;;30.80;14.23;;;;;;;-5.71;74.42;95264.22;5071264;28;20184;-60
2022/01/26 01:09:21;;;;;;;40.23;17.67;;;;;;;-5.43;70.67;95336.47;5070929;28;20224;-66
2022/01/26 01:11:47;;;;;;;46.17;20.53;;;;;;;-5.49;72.19;95315.09;5071087;28;20261;-59
2022/01/26 01:14:12;;;;;;;47.33;21.67;;;;;;;-5.45;71.72;95334.03;5071709;28;20209;-66
2022/01/26 01:16:38;;;;;;;49.87;23.13;;;;;;;-5.46;72.94;95300.22;5071154;28;20751;-65
2022/01/26 01:29:46;;;;;;;44.13;19.97;;;;;;;-5.83;76.49;95219.84;5051411;28;20305;-65
2022/01/26 01:32:14;;;;;;;46.07;20.50;;;;;;;-5.78;75.25;95267.63;5070855;28;20177;-61
2022/01/26 01:34:41;;;;;;;50.20;21.37;;;;;;;-5.81;76.24;95249.50;5069937;28;20223;-67
2022/01/26 01:37:09;;;;;;;46.70;21.50;;;;;;;-5.75;74.93;95262.63;5070833;28;20216;-59
2022/01/26 01:39:36;;;;;;;42.23;21.13;;;;;;;-5.86;76.14;95249.63;5071225;28;20211;-66
2022/01/26 01:42:04;;;;;;;52.80;21.27;;;;;;;-5.77;75.99;95258.53;5070627;28;20274;-60
2022/01/26 01:44:30;;;;;;;53.90;22.10;;;;;;;-5.72;75.75;95257.66;5070503;28;20636;-67
2022/01/26 01:46:57;;;;;;;49.80;20.23;;;;;;;-5.72;74.72;95274.16;5070749;28;20179;-65
2022/01/26 01:49:23;;;;;;;45.43;21.73;;;;;;;-5.81;75.67;95242.91;5070584;28;20216;-63
2022/01/26 01:51:53;;;;;;;42.77;19.67;;;;;;;-5.71;74.89;95254.31;5071391;28;20184;-65
2022/01/26 01:54:19;;;;;;;44.97;21.40;;;;;;;-5.78;75.93;95240.41;5074578;28;20227;-65
2022/01/26 01:56:50;;;;;;;43.07;18.63;;;;;;;-5.66;74.33;95271.59;5074007;28;20204;-66
2022/01/26 01:59:15;;;;;;;40.10;18.03;;;;;;;-5.65;74.91;95250.94;5074448;28;20226;-61
2022/01/26 02:01:41;;;;;;;37.10;17.73;;;;;;;-5.71;74.86;95269.19;5074118;28;20578;-65
2022/01/26 02:04:07;;;;;;;38.33;18.37;;;;;;;-5.88;77.25;95216.66;5074489;28;20696;-66
2022/01/26 02:06:33;;;;;;;34.90;16.43;;;;;;;-5.61;75.76;95255.84;5072731;28;20679;-65
2022/01/26 02:08:59;;;;;;;30.90;15.13;;;;;;;-5.74;75.44;95243.66;5072768;28;20714;-65
2022/01/26 02:11:24;;;;;;;29.10;13.83;;;;;;;-5.62;74.36;95263.28;5072742;28;20275;-67
2022/01/26 02:14:04;;;;;;;38.40;14.53;;;;;;;-5.75;77.02;95227.97;5072866;28;20669;-62
2022/01/26 02:52:02;;;;;;;24.33;11.30;;;;;;;-5.03;72.78;95297.13;5053486;28;20708;-65
2022/01/26 03:02:06;;;;;;;22.93;10.00;;;;;;;-5.62;75.76;95206.38;5052965;28;20189;-61
2022/01/26 03:04:40;;;;;;;22.80;10.77;;;;;;;-5.53;75.51;95224.38;5052420;28;20217;-63
2022/01/26 03:09:44;;;;;;;19.47;9.30;;;;;;;-5.24;73.76;95258.63;5052045;28;20233;-66
2022/01/26 03:12:12;;;;;;;21.57;10.03;;;;;;;-5.20;76.40;95218.09;5053180;28;20158;-68
2022/01/26 03:14:52;;;;;;;27.87;11.83;;;;;;;-5.03;73.95;95260.81;5053419;28;20205;-66
2022/01/26 03:20:08;;;;;;;34.00;14.33;;;;;;;-5.16;75.31;95227.94;5052638;28;20650;-64
2022/01/26 03:33:36;;;;;;;33.50;16.10;;;;;;;-5.05;78.67;95187.31;5052672;28;20205;-60
2022/01/26 03:36:00;;;;;;;30.10;13.53;;;;;;;-4.84;77.31;95196.84;5051999;28;20244;-59
2022/01/26 03:38:49;;;;;;;31.40;13.87;;;;;;;-4.83;78.48;95178.69;5052281;28;20562;-68
2022/01/26 03:41:33;;;;;;;35.27;15.03;;;;;;;-4.57;76.20;95226.97;5051951;28;20735;-61
2022/01/26 03:43:57;;;;;;;33.90;14.77;;;;;;;-4.58;76.82;95205.47;5050688;28;20584;-59
2022/01/26 03:46:23;;;;;;;30.90;15.50;;;;;;;-4.61;77.84;95197.28;5052005;28;20193;-60
2022/01/26 03:48:49;;;;;;;32.47;14.73;;;;;;;-4.64;77.89;95180.78;5052428;28;20216;-65
2022/01/26 03:51:15;;;;;;;33.53;15.50;;;;;;;-4.71;77.70;95195.81;5050673;28;20296;-60
2022/01/26 03:53:40;;;;;;;35.30;15.23;;;;;;;-4.62;77.44;95200.59;5052466;28;20220;-59
2022/01/26 03:56:06;;;;;;;29.97;14.23;;;;;;;-4.63;76.01;95226.25;5051984;28;20201;-61
2022/01/26 03:58:31;;;;;;;38.43;16.10;;;;;;;-4.56;76.90;95213.72;5051941;28;20214;-66
2022/01/26 04:00:57;;;;;;;28.63;14.50;;;;;;;-4.50;76.63;95198.72;5051920;28;20174;-59
2022/01/26 04:03:22;;;;;;;33.83;15.37;;;;;;;-4.48;77.95;95192.06;5050183;28;20363;-59
2022/01/26 04:05:48;;;;;;;26.73;14.20;;;;;;;-4.31;76.03;95212.44;5050418;28;20177;-66
2022/01/26 04:08:19;;;;;;;36.47;16.73;;;;;;;-4.18;75.74;95215.47;5051683;28;20236;-59
2022/01/26 04:13:11;;;;;;;31.97;15.80;;;;;;;-4.35;76.05;95224.91;5051916;28;20224;-65
2022/01/26 04:15:37;;;;;;;38.67;16.90;;;;;;;-4.21;75.38;95227.13;5051799;28;20185;-60
2022/01/26 04:18:06;;;;;;;31.27;14.07;;;;;;;-4.04;74.51;95247.47;5051703;28;20266;-66
2022/01/26 04:20:37;;;;;;;33.63;14.83;;;;;;;-4.24;75.68;95217.28;5051718;28;20287;-60
2022/01/26 04:23:15;;;;;;;30.47;13.67;;;;;;;-4.16;74.53;95231.13;5051691;28;20211;-66
2022/01/26 04:25:43;;;;;;;25.97;13.10;;;;;;;-3.96;74.03;95239.03;5051525;28;20164;-63
2022/01/26 04:28:14;;;;;;;26.53;12.10;;;;;;;-3.81;73.84;95241.22;5050305;28;20292;-60
2022/01/26 04:30:39;;;;;;;29.87;12.57;;;;;;;-3.75;73.93;95230.31;5051316;28;20169;-61
2022/01/26 04:33:07;;;;;;;23.27;11.17;;;;;;;-4.04;73.24;95235.06;5051366;28;20559;-60
2022/01/26 04:35:33;;;;;;;23.47;10.83;;;;;;;-4.27;73.62;95237.97;5051347;28;20173;-60
2022/01/26 04:38:23;;;;;;;34.17;14.00;;;;;;;-4.05;75.52;95196.19;5049872;28;20216;-59
2022/01/26 04:41:03;;;;;;;23.73;11.90;;;;;;;-3.87;74.89;95220.66;5051428;28;20194;-67
2022/01/26 04:43:33;;;;;;;19.17;10.63;;;;;;;-4.23;72.73;95246.19;5074696;23;20254;-65
2022/01/26 04:45:59;;;;;;;28.13;13.63;;;;;;;-4.12;74.74;95219.50;5072249;28;20681;-63
2022/01/26 04:48:26;;;;;;;25.13;13.53;;;;;;;-3.95;74.72;95213.34;5071743;28;20288;-66
2022/01/26 04:50:52;;;;;;;31.53;13.53;;;;;;;-3.84;75.70;95201.56;5071507;28;20666;-66
2022/01/26 04:53:19;;;;;;;27.90;15.57;;;;;;;-3.79;73.92;95224.63;5071239;28;20256;-62
2022/01/26 04:55:47;;;;;;;30.37;15.60;;;;;;;-3.49;73.33;95248.81;5071446;28;20211;-65
2022/01/26 04:58:12;;;;;;;33.27;14.27;;;;;;;-3.47;73.38;95249.59;5071311;28;20266;-66
2022/01/26 05:00:38;;;;;;;34.63;16.73;;;;;;;-3.45;73.91;95237.94;5071382;28;20278;-65
2022/01/26 05:03:04;;;;;;;28.97;15.77;;;;;;;-3.60;76.37;95170.41;5069847;28;20254;-66
2022/01/26 05:05:29;;;;;;;36.60;15.70;;;;;;;-3.59;75.76;95202.66;5071114;28;20185;-67
2022/01/26 05:07:55;;;;;;;28.80;12.57;;;;;;;-3.60;73.18;95245.75;5069768;28;20211;-66
2022/01/26 05:10:21;;;;;;;27.77;14.03;;;;;;;-3.70;73.81;95231.88;5070130;28;20646;-67
2022/01/26 05:12:46;;;;;;;19.43;10.83;;;;;;;-3.95;72.13;95269.63;5069856;28;20197;-65
2022/01/26 05:15:12;;;;;;;27.63;13.47;;;;;;;-4.07;73.90;95220.22;5071381;28;20188;-62
2022/01/26 05:17:38;;;;;;;24.60;12.13;;;;;;;-3.96;74.59;95209.22;5071485;28;20216;-66
2022/01/26 05:20:09;;;;;;;27.77;13.70;;;;;;;-3.99;74.22;95214.28;5071284;28;20297;-61
2022/01/26 05:22:35;;;;;;;19.13;9.83;;;;;;;-4.22;73.27;95236.22;5071475;28;20182;-66
2022/01/26 05:25:01;;;;;;;22.67;11.30;;;;;;;-3.95;74.62;95207.56;5070869;28;20181;-66
2022/01/26 05:27:26;;;;;;;25.90;12.00;;;;;;;-4.12;73.23;95242.63;5073571;28;20218;-60
2022/01/26 05:29:51;;;;;;;20.57;9.20;;;;;;;-4.28;72.70;95244.59;5074619;28;20217;-66
2022/01/26 05:32:17;;;;;;;16.27;8.60;;;;;;;-4.30;73.19;95233.88;5075179;28;20181;-62
2022/01/26 05:34:42;;;;;;;18.20;8.00;;;;;;;-4.23;72.44;95248.66;5073313;28;20298;-61
2022/01/26 05:37:08;;;;;;;14.07;6.93;;;;;;;-4.28;71.34;95264.44;5074830;28;20587;-61
2022/01/26 05:39:34;;;;;;;17.30;7.27;;;;;;;-4.12;72.14;95241.84;5074553;28;20212;-67
2022/01/26 05:42:04;;;;;;;12.73;7.00;;;;;;;-4.04;71.80;95253.25;5074898;28;20200;-62
2022/01/26 05:44:30;;;;;;;15.00;7.33;;;;;;;-4.01;71.27;95265.59;5074705;28;20196;-60
2022/01/26 05:46:56;;;;;;;14.63;7.40;;;;;;;-4.03;70.98;95256.53;5074811;28;20196;-61
2022/01/26 05:49:21;;;;;;;10.87;6.97;;;;;;;-4.02;71.28;95266.44;5074440;28;20197;-66
2022/01/26 05:51:47;;;;;;;17.37;7.73;;;;;;;-3.89;71.90;95239.72;5073226;28;20647;-66
2022/01/26 05:54:15;;;;;;;16.70;8.03;;;;;;;-3.87;71.41;95248.78;5074153;28;20200;-67
2022/01/26 05:56:42;;;;;;;13.97;7.23;;;;;;;-3.35;74.02;95200.50;5074319;28;20303;-66
2022/01/26 05:59:08;;;;;;;15.23;7.73;;;;;;;-3.44;71.41;95259.47;5074336;28;20236;-61
2022/01/26 06:01:34;;;;;;;13.67;6.67;;;;;;;-3.18;72.50;95229.06;5072908;28;20237;-61
2022/01/26 06:03:59;;;;;;;17.90;8.53;;;;;;;-3.39;71.44;95253.59;5072792;28;20205;-66
2022/01/26 06:06:25;;;;;;;13.17;6.70;;;;;;;-3.49;72.11;95214.03;5074120;28;20184;-63
2022/01/26 06:08:51;;;;;;;17.17;7.23;;;;;;;-3.23;74.13;95210.16;5073951;28;20196;-61
2022/01/26 06:11:16;;;;;;;16.30;6.70;;;;;;;-2.92;73.70;95218.50;5074138;28;20191;-65
2022/01/26 06:13:42;;;;;;;22.10;11.23;;;;;;;-2.77;73.70;95221.44;5073823;28;20235;-66
2022/01/26 06:16:08;;;;;;;18.77;9.90;;;;;;;-3.12;72.57;95240.53;5073674;28;20208;-66
2022/01/26 06:18:33;;;;;;;18.53;10.33;;;;;;;-2.98;73.87;95201.25;5073720;28;20199;-67
2022/01/26 06:20:59;;;;;;;20.63;8.77;;;;;;;-3.23;72.39;95223.38;5073905;28;20188;-65
2022/01/26 06:23:25;;;;;;;17.00;8.27;;;;;;;-3.41;73.53;95212.19;5072360;28;20207;-61
2022/01/26 06:25:55;;;;;;;17.80;9.73;;;;;;;-3.55;74.71;95184.34;5073660;28;20182;-61
2022/01/26 06:28:23;;;;;;;14.87;8.60;;;;;;;-3.50;74.82;95177.63;5071979;28;20197;-67
2022/01/26 06:30:55;;;;;;;14.50;7.83;;;;;;;-3.54;75.96;95166.13;5073787;28;20184;-69
2022/01/26 06:33:21;;;;;;;12.83;7.43;;;;;;;-3.62;76.64;95139.81;5073494;28;20686;-64
2022/01/26 06:35:46;;;;;;;17.40;8.30;;;;;;;-3.69;78.40;95120.94;5073490;28;20680;-61
2022/01/26 06:38:14;;;;;;;14.93;7.37;;;;;;;-3.70;79.57;95102.75;5071140;28;20197;-67
2022/01/26 06:40:40;;;;;;;18.33;9.77;;;;;;;-3.65;80.20;95110.06;5073436;28;20531;-67
2022/01/26 06:43:11;;;;;;;17.17;8.73;;;;;;;-3.71;80.99;95096.13;5073968;28;20209;-67
2022/01/26 06:45:44;;;;;;;18.13;9.57;;;;;;;-3.74;81.72;95093.75;5073634;28;20157;-60
2022/01/26 06:50:38;;;;;;;15.17;8.43;;;;;;;-3.52;82.39;95114.75;5073539;28;20212;-68
2022/01/26 06:53:04;;;;;;;17.33;8.93;;;;;;;-3.44;82.55;95117.03;5073629;28;20256;-67
2022/01/26 06:55:48;;;;;;;17.53;8.93;;;;;;;-3.41;83.06;95121.91;5073624;28;20177;-67
2022/01/26 06:58:14;;;;;;;19.63;8.87;;;;;;;-3.42;84.34;95115.34;5071731;28;20201;-61
2022/01/26 07:00:39;;;;;;;18.90;9.63;;;;;;;-3.49;84.48;95112.16;5072936;28;20187;-66
2022/01/26 07:03:08;;;;;;;22.63;10.43;;;;;;;-3.46;85.35;95128.69;5073075;28;20266;-61
2022/01/26 07:05:34;;;;;;;17.73;9.03;;;;;;;-3.51;85.91;95125.47;5073005;28;20695;-61
2022/01/26 07:08:00;;;;;;;14.37;8.17;;;;;;;-3.59;85.78;95123.16;5072754;28;20278;-62
2022/01/26 07:10:25;;;;;;;20.37;8.77;;;;;;;-3.59;86.78;95127.31;5071677;28;20176;-60
2022/01/26 07:12:58;;;;;;;18.23;8.73;;;;;;;-3.51;87.55;95123.81;5071464;28;20298;-67
2022/01/26 07:23:26;;;;;;;17.70;8.17;;;;;;;-3.37;89.28;95127.66;5072971;28;20671;-67
2022/01/26 07:25:52;;;;;;;22.87;9.50;;;;;;;-3.36;89.83;95124.31;5072541;28;20265;-66
2022/01/26 07:28:38;;;;;;;19.90;8.20;;;;;;;-3.38;90.54;95118.56;5072349;28;20198;-67
2022/01/26 07:31:06;;;;;;;20.60;9.83;;;;;;;-3.37;90.62;95130.94;5072767;28;20188;-62
2022/01/26 07:33:32;;;;;;;20.67;9.10;;;;;;;-3.35;91.13;95126.75;5072329;28;20197;-63
2022/01/26 07:35:58;;;;;;;18.07;8.13;;;;;;;-3.28;91.63;95133.22;5072280;28;20205;-62
2022/01/26 07:38:25;;;;;;;19.00;9.07;;;;;;;-3.28;90.91;95132.38;5072244;28;20280;-61
2022/01/26 07:40:51;;;;;;;18.07;8.80;;;;;;;-3.20;90.96;95140.47;5072277;28;20255;-66
2022/01/26 07:43:16;;;;;;;21.27;9.67;;;;;;;-3.22;90.80;95132.25;5071249;28;20555;-61
2022/01/26 07:45:42;;;;;;;25.87;11.00;;;;;;;-3.20;90.80;95140.47;5071015;28;20668;-67
2022/01/26 07:48:07;;;;;;;17.37;8.83;;;;;;;-3.30;91.74;95126.63;5072287;28;20230;-61
2022/01/26 07:50:33;;;;;;;17.77;7.93;;;;;;;-3.31;91.78;95122.53;5070664;28;20181;-61
2022/01/26 07:53:00;;;;;;;21.97;9.10;;;;;;;-3.27;92.24;95134.03;5072374;28;20198;-67
2022/01/26 07:55:26;;;;;;;17.37;8.77;;;;;;;-3.29;92.96;95131.56;5072845;28;20547;-60
2022/01/26 07:57:54;;;;;;;21.37;9.87;;;;;;;-3.17;93.30;95138.72;5070574;28;20228;-68
2022/01/26 08:00:19;;;;;;;18.17;8.70;;;;;;;-3.28;94.53;95127.41;5072428;28;20231;-66
2022/01/26 08:02:46;;;;;;;17.63;8.23;;;;;;;-3.26;95.48;95130.69;5072105;28;20205;-60
2022/01/26 08:05:13;;;;;;;20.50;8.83;;;;;;;-3.24;95.15;95136.44;5070714;28;20196;-61
2022/01/26 08:07:39;;;;;;;21.50;9.43;;;;;;;-3.23;95.67;95136.38;5071655;28;20272;-67
2022/01/26 08:10:06;;;;;;;20.80;9.83;;;;;;;-3.17;96.02;95141.22;5072117;28;20270;-67
2022/01/26 08:12:32;;;;;;;13.60;8.77;;;;;;;-3.11;96.18;95137.78;5071921;28;20183;-60
2022/01/26 08:14:57;;;;;;;18.07;7.70;;;;;;;-3.06;96.06;95146.75;5072203;28;20219;-68
2022/01/26 08:17:23;;;;;;;15.57;8.00;;;;;;;-3.09;96.91;95141.84;5071606;28;20236;-60
2022/01/26 08:19:52;;;;;;;17.03;8.47;;;;;;;-3.10;97.60;95141.88;5070496;28;20291;-60
2022/01/26 08:22:19;;;;;;;16.70;9.13;;;;;;;-3.04;98.10;95140.06;5071632;28;20186;-62
2022/01/26 08:24:45;;;;;;;16.47;8.47;;;;;;;-3.02;99.03;95123.44;5070570;28;20305;-67
2022/01/26 08:27:13;;;;;;;17.47;8.57;;;;;;;-2.97;98.83;95136.56;5070300;28;20188;-60
2022/01/26 08:29:43;;;;;;;21.03;8.87;;;;;;;-2.94;98.82;95134.00;5071925;28;20210;-65
2022/01/26 08:32:08;;;;;;;18.17;8.70;;;;;;;-2.93;99.98;95134.84;5071358;28;20301;-60
2022/01/26 08:34:34;;;;;;;17.37;8.10;;;;;;;-2.90;99.81;95137.22;5071936;28;20341;-59
2022/01/26 08:37:00;;;;;;;17.10;8.10;;;;;;;-2.91;100.00;95135.63;5071757;28;20296;-66
2022/01/26 08:39:25;;;;;;;19.37;9.40;;;;;;;-2.76;100.00;95133.53;5071395;28;20210;-58
2022/01/26 08:41:51;;;;;;;18.43;8.03;;;;;;;-2.74;99.49;95145.94;5071571;28;20187;-67
2022/01/26 08:44:17;;;;;;;16.00;7.50;;;;;;;-2.78;100.00;95145.19;5071808;28;20211;-66
2022/01/26 08:46:43;;;;;;;19.37;8.80;;;;;;;-2.54;100.00;95153.69;5071519;28;20180;-63
2022/01/26 08:49:08;;;;;;;17.23;8.63;;;;;;;-2.42;98.91;95157.53;5071809;28;20215;-68
2022/01/26 08:51:34;;;;;;;17.30;8.37;;;;;;;-2.47;99.14;95169.28;5071586;28;20565;-66
2022/01/26 08:54:01;;;;;;;17.67;8.70;;;;;;;-2.44;99.56;95155.06;5071423;28;20230;-67
2022/01/26 08:56:27;;;;;;;17.67;7.93;;;;;;;-2.42;98.74;95163.31;5071295;28;20256;-67
2022/01/26 08:58:53;;;;;;;13.93;7.83;;;;;;;-0.23;100.00;95148.97;5070053;28;20591;-62
2022/01/26 09:01:19;;;;;;;17.20;7.93;;;;;;;-1.56;100.00;95210.69;5069958;28;20215;-66
2022/01/26 09:03:44;;;;;;;14.10;8.40;;;;;;;-1.91;100.00;95189.28;5075517;28;20229;-66
2022/01/26 09:06:10;;;;;;;13.63;8.10;;;;;;;-2.01;100.00;95177.13;5074074;28;20687;-67
2022/01/26 09:08:39;;;;;;;18.20;9.40;;;;;;;-2.09;100.00;95169.88;5075091;28;20581;-67
2022/01/26 09:11:06;;;;;;;14.43;8.80;;;;;;;-1.99;100.00;95177.91;5073966;28;20187;-67
2022/01/26 09:13:33;;;;;;;14.83;8.00;;;;;;;-1.87;100.00;95178.38;5075120;28;20290;-67
2022/01/26 09:16:06;;;;;;;16.13;8.47;;;;;;;-1.89;100.00;95179.25;5075162;28;20230;-61
2022/01/26 09:18:46;;;;;;;14.23;7.53;;;;;;;-1.89;100.00;95184.25;5073753;28;20575;-66
2022/01/26 09:21:12;;;;;;;15.67;7.40;;;;;;;-2.08;100.00;95178.97;5075133;28;20651;-67
2022/01/26 09:23:37;;;;;;;14.73;7.50;;;;;;;-2.09;100.00;95169.88;5075435;28;20213;-59
2022/01/26 09:26:04;;;;;;;13.77;7.87;;;;;;;-2.10;100.00;95162.47;5075131;28;20231;-60
2022/01/26 09:28:29;;;;;;;14.90;8.53;;;;;;;-2.11;100.00;95158.31;5075140;28;20197;-61
2022/01/26 09:30:55;;;;;;;12.83;7.30;;;;;;;-2.10;100.00;95174.91;5075144;28;20189;-62
2022/01/26 09:33:21;;;;;;;11.00;6.70;;;;;;;-2.15;100.00;95166.72;5074677;28;20582;-60
2022/01/26 09:35:48;;;;;;;14.37;7.33;;;;;;;-2.06;100.00;95171.47;5075215;28;20206;-67
2022/01/26 09:38:14;;;;;;;14.37;8.00;;;;;;;-2.03;100.00;95169.69;5057019;28;20586;-61
2022/01/26 09:40:39;;;;;;;13.00;7.00;;;;;;;-1.86;100.00;95161.75;5075181;28;20182;-66
2022/01/26 09:43:06;;;;;;;14.50;6.87;;;;;;;-1.96;100.00;95162.88;5074683;28;20212;-60
2022/01/26 09:45:34;;;;;;;11.43;6.63;;;;;;;-1.95;100.00;95157.84;5073199;28;20684;-61
2022/01/26 09:48:04;;;;;;;13.63;6.80;;;;;;;-1.95;100.00;95159.50;5074413;28;20225;-67
2022/01/26 09:50:31;;;;;;;13.97;7.37;;;;;;;-1.92;100.00;95155.25;5074964;28;20187;-61
2022/01/26 09:52:57;;;;;;;14.37;6.90;;;;;;;-1.89;100.00;95154.34;5074315;28;20229;-61
2022/01/26 09:55:23;;;;;;;15.23;7.37;;;;;;;-1.70;100.00;95158.75;5075014;28;20209;-67
2022/01/26 09:57:49;;;;;;;11.23;7.47;;;;;;;-1.51;100.00;95149.06;5075040;28;20215;-66
2022/01/26 10:00:22;;;;;;;12.50;7.07;;;;;;;-1.39;100.00;95163.63;5075371;28;20313;-68
2022/01/26 10:03:03;;;;;;;10.93;6.90;;;;;;;-1.37;100.00;95148.63;5073239;28;20594;-66
2022/01/26 10:05:44;;;;;;;12.23;6.67;;;;;;;-1.38;100.00;95154.50;5075441;28;20211;-67
2022/01/26 10:08:24;;;;;;;13.23;6.33;;;;;;;-1.34;100.00;95168.50;5073432;28;20674;-60
2022/01/26 10:19:07;;;;;;;13.20;7.40;;;;;;;-1.09;100.00;95149.41;5075494;28;20237;-70
2022/01/26 10:21:54;;;;;;;14.90;8.00;;;;;;;-0.98;100.00;95157.34;5073978;28;20200;-60
2022/01/26 10:24:31;;;;;;;11.63;6.67;;;;;;;-1.17;100.00;95146.34;5074757;28;20272;-69
2022/01/26 10:27:00;;;;;;;10.63;7.10;;;;;;;-1.32;100.00;95137.66;5073288;28;20181;-68
2022/01/26 10:29:28;;;;;;;15.20;7.73;;;;;;;-1.34;100.00;95133.59;5074626;28;20289;-61
2022/01/26 10:31:53;;;;;;;12.20;7.20;;;;;;;-1.35;100.00;95119.47;5074416;28;20240;-61
2022/01/26 10:34:24;;;;;;;11.40;5.80;;;;;;;-1.41;100.00;95119.66;5073830;28;20212;-64
2022/01/26 10:36:51;;;;;;;12.90;7.43;;;;;;;-1.38;100.00;95112.09;5072785;28;20202;-61
2022/01/26 10:39:28;;;;;;;13.13;8.17;;;;;;;-1.34;100.00;95103.66;5074024;28;20213;-59
2022/01/26 10:41:58;;;;;;;12.33;6.73;;;;;;;-1.40;100.00;95097.22;5072787;28;20177;-60
2022/01/26 10:44:39;;;;;;;16.30;7.90;;;;;;;-1.19;100.00;95110.69;5073824;28;20213;-62
2022/01/26 10:47:08;;;;;;;13.83;6.67;;;;;;;-1.19;100.00;95108.19;5073826;28;20166;-60
2022/01/26 10:52:27;;;;;;;17.17;7.03;;;;;;;-1.30;100.00;95102.72;5073338;28;20177;-67
2022/01/26 10:54:53;;;;;;;16.97;7.90;;;;;;;-1.33;100.00;95086.16;5029184;23;20231;-62
2022/01/26 10:57:19;;;;;;;14.13;8.37;;;;;;;-1.35;100.00;95089.56;5033346;28;20262;-63
2022/01/26 10:59:47;;;;;;;14.30;8.03;;;;;;;-1.34;100.00;95094.53;5033472;28;20208;-67
2022/01/26 11:02:14;;;;;;;13.13;8.40;;;;;;;-1.19;100.00;95098.22;5033648;28;20183;-67
2022/01/26 11:04:43;;;;;;;11.13;6.50;;;;;;;-1.27;100.00;95092.66;5033251;28;20703;-67
2022/01/26 11:07:10;;;;;;;11.27;7.37;;;;;;;-1.39;100.00;95100.50;5032380;28;20188;-68
2022/01/26 11:09:38;;;;;;;12.50;7.30;;;;;;;-1.42;100.00;95096.44;5033745;28;20657;-61
2022/01/26 11:12:07;;;;;;;13.80;7.20;;;;;;;-1.36;100.00;95093.75;5031859;28;20185;-68
2022/01/26 11:14:50;;;;;;;12.87;7.30;;;;;;;-1.21;100.00;95089.97;5032882;28;20585;-62
2022/01/26 11:17:28;;;;;;;17.77;7.87;;;;;;;-1.24;100.00;95082.56;5033141;28;20226;-62
2022/01/26 11:19:57;;;;;;;16.23;7.60;;;;;;;-1.16;100.00;95091.44;5032571;28;20203;-61
2022/01/26 11:22:27;;;;;;;10.73;6.97;;;;;;;-1.32;100.00;95092.78;5032380;28;20270;-60
2022/01/26 11:24:55;;;;;;;13.63;7.90;;;;;;;-1.23;100.00;95085.00;5032204;28;20161;-61
2022/01/26 11:27:21;;;;;;;15.13;8.23;;;;;;;-1.01;100.00;95087.63;5032340;28;20184;-60
2022/01/26 11:29:52;;;;;;;11.83;6.20;;;;;;;-1.09;100.00;95084.56;5032405;28;20183;-63
2022/01/26 11:32:27;;;;;;;14.00;7.67;;;;;;;-1.11;100.00;95093.78;5032907;28;20169;-61
2022/01/26 11:34:55;;;;;;;12.47;7.33;;;;;;;-1.20;100.00;95074.13;5032509;28;20214;-62
2022/01/26 11:37:45;;;;;;;15.03;8.17;;;;;;;-1.02;100.00;95089.31;5030637;28;20236;-62
2022/01/26 11:46:09;;;;;;;11.80;6.60;;;;;;;-1.17;100.00;95072.34;5032347;28;20339;-59
2022/01/26 11:48:36;;;;;;;14.97;7.50;;;;;;;-0.98;100.00;95075.84;5032934;28;20243;-66
2022/01/26 11:51:03;;;;;;;14.37;6.53;;;;;;;-0.96;100.00;95086.59;5032525;28;20271;-64
2022/01/26 11:53:30;;;;;;;12.47;6.37;;;;;;;-0.88;100.00;95093.81;5032338;28;20260;-66
2022/01/26 11:56:06;;;;;;;11.00;7.30;;;;;;;-0.99;100.00;95070.94;5030855;28;20240;-61
2022/01/26 11:58:34;;;;;;;15.57;8.07;;;;;;;-0.66;100.00;95072.25;5029452;23;20309;-60
2022/01/26 12:03:55;;;;;;;10.77;6.63;;;;;;;-0.71;100.00;95081.59;5031761;28;20219;-67
2022/01/26 12:06:37;;;;;;;11.47;6.57;;;;;;;-0.70;100.00;95083.22;5031836;28;20195;-61
2022/01/26 12:09:06;;;;;;;11.50;6.23;;;;;;;-0.76;100.00;95082.59;5032022;28;20211;-61
2022/01/26 12:11:33;;;;;;;12.53;7.53;;;;;;;-0.91;100.00;95074.78;5031689;28;20177;-61
2022/01/26 12:14:04;;;;;;;13.67;8.07;;;;;;;-0.84;100.00;95070.41;5032067;28;20191;-59
2022/01/26 12:16:45;;;;;;;12.73;7.67;;;;;;;-0.89;100.00;95062.25;5032104;28;20244;-66
2022/01/26 12:38:10;;;;;;;11.13;6.47;;;;;;;-1.18;100.00;95045.78;5070855;28;20280;-67
2022/01/26 12:43:30;;;;;;;10.93;6.43;;;;;;;-1.27;100.00;95045.28;5071622;28;20212;-62
2022/01/26 12:45:56;;;;;;;11.27;6.70;;;;;;;-1.28;100.00;95056.94;5071580;28;20197;-62
2022/01/26 12:48:22;;;;;;;12.53;6.40;;;;;;;-1.17;100.00;95049.09;5070397;28;20200;-61
2022/01/26 12:50:48;;;;;;;10.80;6.70;;;;;;;-1.19;100.00;95048.34;5071411;28;20189;-62
2022/01/26 12:53:14;;;;;;;13.47;6.70;;;;;;;-1.22;100.00;95051.75;5071555;28;20673;-61
2022/01/26 12:55:40;;;;;;;13.00;7.73;;;;;;;-1.07;100.00;95046.22;5071589;28;20187;-65
2022/01/26 12:58:06;;;;;;;11.47;7.03;;;;;;;-1.03;100.00;95059.44;5069862;28;20587;-62
2022/01/26 13:00:41;;;;;;;10.27;6.87;;;;;;;-1.05;100.00;95053.69;5071159;28;20233;-66
2022/01/26 13:03:15;;;;;;;12.60;7.63;;;;;;;-0.97;100.00;95056.72;5071469;28;20700;-66
2022/01/26 13:05:41;;;;;;;14.13;7.60;;;;;;;-0.86;100.00;95053.00;5071033;28;20681;-61
2022/01/26 13:08:08;;;;;;;12.77;6.67;;;;;;;-0.93;100.00;95050.75;5071394;28;20220;-62
2022/01/26 13:10:34;;;;;;;10.23;6.87;;;;;;;-0.97;100.00;95047.53;5071254;28;20180;-62
2022/01/26 13:13:10;;;;;;;13.20;6.70;;;;;;;-0.89;100.00;95037.31;5071299;28;20582;-68
2022/01/26 13:15:51;;;;;;;13.13;7.57;;;;;;;-0.91;100.00;95037.34;5071238;28;20208;-61
2022/01/26 13:18:34;;;;;;;15.33;7.80;;;;;;;-0.63;100.00;95043.88;5071554;28;20680;-68
2022/01/26 13:24:27;;;;;;;12.17;6.30;;;;;;;-0.78;100.00;95050.22;5071033;28;20205;-67
2022/01/26 14:00:25;;;;;;;9.93;5.83;;;;;;;-0.96;100.00;95061.66;5074357;28;20552;-66
2022/01/26 14:02:56;;;;;;;9.43;5.43;;;;;;;-1.01;100.00;95057.69;5074128;28;20186;-67
2022/01/26 14:05:21;;;;;;;12.53;5.57;;;;;;;-1.02;100.00;95056.06;5025035;23;20229;-60
2022/01/26 14:07:47;;;;;;;9.07;6.00;;;;;;;-1.01;100.00;95057.69;5034080;28;20279;-68
2022/01/26 14:10:12;;;;;;;9.03;5.70;;;;;;;-1.02;100.00;95066.84;5034541;28;20181;-66
2022/01/26 14:12:44;;;;;;;9.73;5.83;;;;;;;-1.03;100.00;95062.72;5034198;28;20189;-66
2022/01/26 14:15:10;;;;;;;10.30;6.40;;;;;;;-0.90;100.00;95070.59;5034042;28;20253;-62
2022/01/26 14:17:56;;;;;;;11.97;6.60;;;;;;;-0.96;100.00;95073.31;5033847;28;20247;-66
2022/01/26 14:25:55;;;;;;;9.77;6.50;;;;;;;-1.06;100.00;95059.50;5033988;28;20653;-68
2022/01/26 14:28:24;;;;;;;13.50;6.63;;;;;;;-0.96;100.00;95071.63;5032751;28;20205;-66
2022/01/26 14:34:33;;;;;;;10.40;5.67;;;;;;;-1.10;100.00;95067.97;4972628;28;20215;-59